Time;durP1;ratioP1;P1;durP2;ratioP2;P2;SDS_P1;SDS_P2;PMS_P1;PMS_P2;Temp;Humidity;BMP_temperature;BMP_pressure;BME280_temperature;BME280_humidity;BME280_pressure;Samples;Min_cycle;Max_cycle;Signal;HPM_P1;HPM_P2
2022/04/28 00:01:09;;;;;;;;;;;;;;;11.70;52.75;96929.94;6372021;27;20021;-65
2022/04/28 00:04:10;;;;;;;;;;;;;;;11.73;52.63;96928.88;6371854;27;19965;-63
2022/04/28 00:07:11;;;;;;;;;;;;;;;11.57;53.13;96937.81;6371403;27;20335;-64
2022/04/28 00:10:16;;;;;;;;;;;;;;;11.34;53.57;96933.25;6372562;27;20021;-64
2022/04/28 00:13:17;;;;;;;;;;;;;;;11.20;53.99;96935.00;6371891;27;20026;-64
2022/04/28 00:16:18;;;;;;;;;;;;;;;11.15;53.91;96929.22;6371832;27;20073;-63
2022/04/28 00:19:21;;;;;;;;;;;;;;;11.12;53.92;96929.41;6372493;27;19924;-64
2022/04/28 00:22:25;;;;;;;;;;;;;;;10.84;54.33;96924.25;6372375;27;19923;-64
2022/04/28 00:25:26;;;;;;;;;;;;;;;10.67;54.85;96934.13;6352417;27;19923;-65
2022/04/28 00:28:32;;;;;;;;;;;;;;;10.59;55.00;96928.50;6372178;27;19943;-64
2022/04/28 00:31:39;;;;;;;;;;;;;;;10.69;54.78;96929.56;6371351;27;19924;-64
2022/04/28 00:34:40;;;;;;;;;;;;;;;10.67;54.79;96920.97;6371397;27;19923;-64
2022/04/28 00:37:43;;;;;;;;;;;;;;;10.46;55.14;96930.22;6372183;27;19924;-64
2022/04/28 00:40:44;;;;;;;;;;;;;;;10.60;54.56;96922.28;6371016;27;19931;-64
2022/04/28 00:43:52;;;;;;;;;;;;;;;10.61;54.30;96929.22;6372088;27;19928;-63
2022/04/28 00:46:53;;;;;;;;;;;;;;;10.56;54.42;96920.81;6371511;27;20445;-65
2022/04/28 00:53:19;;;;;;;;;;;;;;;10.37;54.49;96920.28;6371812;27;19923;-64
2022/04/28 00:56:20;;;;;;;;;;;;;;;10.36;54.65;96926.47;6371477;27;20408;-65
2022/04/28 00:59:24;;;;;;;;;;;;;;;10.36;54.51;96923.84;6371237;27;19923;-65
2022/04/28 01:02:25;;;;;;;;;;;;;;;10.27;54.71;96914.72;6370993;27;19928;-63
2022/04/28 01:05:26;;;;;;;;;;;;;;;10.28;54.45;96919.91;6370914;28;19931;-64
2022/04/28 01:08:32;;;;;;;;;;;;;;;10.18;54.61;96916.13;6371516;28;19923;-64
2022/04/28 01:11:36;;;;;;;;;;;;;;;10.05;54.71;96925.75;6371688;28;19923;-64
2022/04/28 01:14:41;;;;;;;;;;;;;;;10.05;54.71;96918.69;6371488;28;19946;-64
2022/04/28 01:17:47;;;;;;;;;;;;;;;9.93;55.10;96918.59;6371552;27;20022;-64
2022/04/28 01:20:48;;;;;;;;;;;;;;;9.92;54.94;96914.28;6376177;27;19932;-65
2022/04/28 01:23:54;;;;;;;;;;;;;;;9.82;54.98;96914.84;6376715;27;19977;-65
2022/04/28 01:26:56;;;;;;;;;;;;;;;9.81;54.68;96914.94;6376711;27;19929;-64
2022/04/28 01:29:57;;;;;;;;;;;;;;;9.80;54.96;96911.47;6375827;27;19924;-64
2022/04/28 01:32:58;;;;;;;;;;;;;;;9.79;55.00;96915.00;6375716;27;19930;-64
2022/04/28 01:35:59;;;;;;;;;;;;;;;9.71;55.16;96917.28;6375698;27;19931;-64
2022/04/28 01:39:01;;;;;;;;;;;;;;;9.54;55.61;96909.56;6375935;27;20012;-65
2022/04/28 01:42:02;;;;;;;;;;;;;;;9.60;55.64;96909.22;6376368;27;20392;-64
2022/04/28 01:45:06;;;;;;;;;;;;;;;9.62;55.44;96918.69;6375585;27;20022;-63
2022/04/28 01:48:07;;;;;;;;;;;;;;;9.49;55.79;96916.88;6375507;27;19923;-63
2022/04/28 01:57:49;;;;;;;;;;;;;;;9.89;54.98;96905.63;6375845;27;19930;-65
2022/04/28 02:00:50;;;;;;;;;;;;;;;9.98;54.71;96916.53;6374919;27;20072;-64
2022/04/28 02:03:51;;;;;;;;;;;;;;;10.05;54.62;96899.44;6375657;27;20304;-64
2022/04/28 02:06:52;;;;;;;;;;;;;;;10.05;54.69;96899.44;6375525;27;19976;-64
2022/04/28 02:09:54;;;;;;;;;;;;;;;10.28;54.05;96896.25;6375353;27;19923;-64
2022/04/28 02:12:55;;;;;;;;;;;;;;;10.28;54.09;96896.25;6375469;27;20443;-64
2022/04/28 02:15:58;;;;;;;;;;;;;;;10.67;53.08;96899.91;6357131;27;19919;-64
2022/04/28 02:19:05;;;;;;;;;;;;;;;10.64;53.21;96897.44;6357320;27;19923;-64
2022/04/28 02:22:06;;;;;;;;;;;;;;;10.67;53.11;96902.53;6374333;27;19919;-64
2022/04/28 02:25:07;;;;;;;;;;;;;;;10.72;53.36;96895.16;6375110;27;19930;-65
2022/04/28 02:28:08;;;;;;;;;;;;;;;10.84;53.17;96895.31;6374147;27;20030;-64
2022/04/28 02:31:12;;;;;;;;;;;;;;;10.85;52.97;96883.84;6356015;27;19923;-64
2022/04/28 02:34:13;;;;;;;;;;;;;;;10.95;52.95;96885.75;6375363;27;19923;-64
2022/04/28 02:37:16;;;;;;;;;;;;;;;10.95;52.92;96884.91;6374820;27;20392;-64
2022/04/28 02:40:19;;;;;;;;;;;;;;;11.06;52.49;96887.69;6374851;27;19939;-65
2022/04/28 02:43:21;;;;;;;;;;;;;;;11.24;52.20;96890.91;6373743;27;19923;-64
2022/04/28 02:46:22;;;;;;;;;;;;;;;11.36;52.02;96891.84;6373951;27;19924;-65
2022/04/28 02:49:28;;;;;;;;;;;;;;;11.56;51.50;96886.06;6374417;27;20392;-64
2022/04/28 02:52:29;;;;;;;;;;;;;;;11.62;51.40;96893.53;6373566;27;20419;-64
2022/04/28 02:55:33;;;;;;;;;;;;;;;11.94;51.08;96894.94;6374507;27;19923;-64
2022/04/28 02:58:34;;;;;;;;;;;;;;;12.03;50.68;96895.13;6373646;27;19923;-65
2022/04/28 03:01:35;;;;;;;;;;;;;;;12.16;50.44;96899.53;6372608;27;19923;-65
2022/04/28 03:04:38;;;;;;;;;;;;;;;12.22;50.18;96891.19;6373942;27;19927;-64
2022/04/28 03:11:11;;;;;;;;;;;;;;;12.80;49.00;96884.34;6372712;27;19970;-64
2022/04/28 03:14:12;;;;;;;;;;;;;;;12.90;49.13;96885.34;6373872;27;19934;-64
2022/04/28 03:17:14;;;;;;;;;;;;;;;13.24;48.47;96893.38;6373601;27;19943;-64
2022/04/28 03:20:15;;;;;;;;;;;;;;;13.44;47.71;96889.25;6372882;27;19931;-65
2022/04/28 03:23:16;;;;;;;;;;;;;;;13.90;46.63;96891.88;6372853;27;19923;-64
2022/04/28 03:26:20;;;;;;;;;;;;;;;14.24;45.94;96891.00;6372472;27;19931;-64
2022/04/28 03:29:22;;;;;;;;;;;;;;;14.32;46.10;96889.44;6372461;27;20392;-64
2022/04/28 03:32:23;;;;;;;;;;;;;;;14.65;45.20;96879.78;6373199;27;19924;-64
2022/04/28 03:35:27;;;;;;;;;;;;;;;14.95;44.00;96883.56;6372879;27;19930;-65
2022/04/28 03:38:30;;;;;;;;;;;;;;;15.19;43.56;96894.75;6373075;27;19923;-64
2022/04/28 03:41:31;;;;;;;;;;;;;;;15.56;42.71;96883.69;6371574;27;19924;-65
2022/04/28 03:44:35;;;;;;;;;;;;;;;15.67;42.31;96883.63;6373224;27;19923;-64
2022/04/28 03:47:39;;;;;;;;;;;;;;;15.84;42.20;96889.34;6372593;27;20379;-64
2022/04/28 03:50:40;;;;;;;;;;;;;;;16.02;41.90;96890.44;6372224;27;19996;-63
2022/04/28 03:53:44;;;;;;;;;;;;;;;16.21;41.60;96878.19;6372973;27;20304;-64
2022/04/28 03:56:45;;;;;;;;;;;;;;;16.37;41.42;96875.88;6371665;27;19923;-66
2022/04/28 03:59:49;;;;;;;;;;;;;;;16.63;40.92;96868.25;6373014;27;19954;-64
2022/04/28 04:02:50;;;;;;;;;;;;;;;16.94;40.32;96876.97;6372339;27;19980;-64
2022/04/28 04:05:53;;;;;;;;;;;;;;;17.22;40.13;96859.34;6372114;27;19923;-64
2022/04/28 04:08:57;;;;;;;;;;;;;;;17.44;39.69;96868.84;6371571;27;20304;-65
2022/04/28 04:12:02;;;;;;;;;;;;;;;17.80;38.22;96868.25;6372458;27;19924;-65
2022/04/28 04:15:07;;;;;;;;;;;;;;;18.17;36.88;96858.44;6372541;27;19924;-65
2022/04/28 04:18:10;;;;;;;;;;;;;;;18.55;35.89;96848.56;6372369;27;19924;-65
2022/04/28 04:21:16;;;;;;;;;;;;;;;18.82;35.55;96853.06;6372700;27;19924;-66
2022/04/28 04:24:17;;;;;;;;;;;;;;;19.03;34.96;96841.25;6371752;27;19930;-64
2022/04/28 04:27:20;;;;;;;;;;;;;;;19.42;34.14;96862.22;6373063;27;19923;-63
2022/04/28 04:33:43;;;;;;;;;;;;;;;19.71;33.10;96841.47;6371245;27;19930;-65
2022/04/28 04:36:47;;;;;;;;;;;;;;;19.79;33.13;96842.50;6372013;27;19934;-64
2022/04/28 04:39:50;;;;;;;;;;;;;;;19.97;33.19;96829.94;6371814;27;19924;-64
2022/04/28 04:42:51;;;;;;;;;;;;;;;20.16;32.53;96829.69;6371754;27;20380;-64
2022/04/28 04:45:57;;;;;;;;;;;;;;;20.32;32.28;96817.38;6371831;27;20312;-65
2022/04/28 04:49:00;;;;;;;;;;;;;;;20.73;31.59;96841.59;6371896;27;19928;-64
2022/04/28 04:52:04;;;;;;;;;;;;;;;21.83;29.60;96839.47;6371878;27;19923;-65
2022/04/28 04:55:05;;;;;;;;;;;;;;;23.42;27.19;96836.50;6370608;27;20420;-65
2022/04/28 04:58:09;;;;;;;;;;;;;;;24.63;25.22;96836.25;6370479;27;20064;-65
2022/04/28 05:01:10;;;;;;;;;;;;;;;25.72;23.61;96829.84;6371005;27;19924;-64
2022/04/28 05:04:11;;;;;;;;;;;;;;;26.85;22.04;96852.94;6370452;27;19927;-65
2022/04/28 05:07:14;;;;;;;;;;;;;;;27.52;21.38;96839.59;6371670;28;19923;-64
2022/04/28 05:10:16;;;;;;;;;;;;;;;28.48;20.25;96858.06;6371329;28;19923;-64
2022/04/28 05:13:17;;;;;;;;;;;;;;;28.84;19.82;96840.38;6370455;28;19931;-65
2022/04/28 05:16:21;;;;;;;;;;;;;;;29.16;19.31;96862.97;6371627;28;19933;-65
2022/04/28 05:19:22;;;;;;;;;;;;;;;29.92;18.41;96874.75;6370531;28;19923;-64
2022/04/28 05:22:26;;;;;;;;;;;;;;;30.05;18.31;96852.94;6369844;28;19923;-65
2022/04/28 05:25:28;;;;;;;;;;;;;;;29.37;18.76;96861.78;6370581;28;19923;-65
2022/04/28 05:28:29;;;;;;;;;;;;;;;29.37;19.01;96856.38;6370704;28;19931;-65
2022/04/28 05:31:32;;;;;;;;;;;;;;;30.53;17.51;96868.53;6371491;28;19919;-65
2022/04/28 05:34:33;;;;;;;;;;;;;;;31.36;16.89;96858.94;6370507;28;19923;-65
2022/04/28 05:37:35;;;;;;;;;;;;;;;32.16;16.49;96844.91;6370253;28;19923;-64
2022/04/28 05:40:40;;;;;;;;;;;;;;;32.15;16.51;96861.47;6371095;28;19926;-65
2022/04/28 05:47:04;;;;;;;;;;;;;;;30.19;17.99;96875.34;6369833;28;19976;-65
2022/04/28 05:50:05;;;;;;;;;;;;;;;28.87;18.83;96850.78;6370542;28;19926;-64
2022/04/28 05:53:08;;;;;;;;;;;;;;;28.93;18.93;96860.78;6370641;28;20324;-64
2022/04/28 05:56:11;;;;;;;;;;;;;;;30.21;18.21;96851.53;6370637;28;19927;-64
2022/04/28 05:59:16;;;;;;;;;;;;;;;31.49;16.29;96857.94;6369828;28;19923;-64
2022/04/28 06:02:18;;;;;;;;;;;;;;;31.26;16.84;96854.03;6369955;28;19947;-65
2022/04/28 06:05:19;;;;;;;;;;;;;;;30.35;17.37;96874.78;6370935;27;19959;-65
2022/04/28 06:08:20;;;;;;;;;;;;;;;28.76;18.27;96870.41;6374513;27;19930;-64
2022/04/28 06:11:23;;;;;;;;;;;;;;;27.67;19.15;96845.63;6375275;27;20002;-65
2022/04/28 06:14:24;;;;;;;;;;;;;;;27.36;20.03;96865.13;6374551;27;19945;-64
2022/04/28 06:17:28;;;;;;;;;;;;;;;27.06;19.74;96843.00;6374857;27;19930;-64
2022/04/28 06:20:29;;;;;;;;;;;;;;;26.66;20.11;96859.09;6374584;27;19923;-65
2022/04/28 06:23:33;;;;;;;;;;;;;;;26.47;20.39;96849.00;6375213;27;19923;-64
2022/04/28 06:26:36;;;;;;;;;;;;;;;27.01;19.52;96807.72;6373765;27;19930;-65
2022/04/28 06:29:46;;;;;;;;;;;;;;;27.38;19.50;96835.22;6374878;27;19941;-64
2022/04/28 06:32:47;;;;;;;;;;;;;;;26.95;19.35;96840.91;6374315;27;19924;-65
2022/04/28 06:35:48;;;;;;;;;;;;;;;26.46;19.90;96841.94;6373981;27;19923;-64
2022/04/28 06:38:49;;;;;;;;;;;;;;;27.26;19.52;96848.50;6374076;27;19923;-65
2022/04/28 06:41:51;;;;;;;;;;;;;;;27.20;19.59;96831.22;6373176;27;19929;-64
2022/04/28 06:44:54;;;;;;;;;;;;;;;26.52;19.50;96835.78;6374558;27;20316;-64
2022/04/28 06:47:55;;;;;;;;;;;;;;;26.09;20.08;96819.75;6373935;27;19930;-65
2022/04/28 06:51:00;;;;;;;;;;;;;;;25.86;20.64;96847.81;6374384;27;20022;-66
2022/04/28 06:54:04;;;;;;;;;;;;;;;25.34;21.02;96822.09;6373939;27;19923;-66
2022/04/28 06:57:05;;;;;;;;;;;;;;;25.42;20.71;96824.66;6373972;27;19923;-64
2022/04/28 07:00:09;;;;;;;;;;;;;;;26.19;20.33;96804.06;6374076;27;19927;-64
2022/04/28 07:03:10;;;;;;;;;;;;;;;26.96;19.33;96810.19;6373298;27;20308;-65
2022/04/28 07:06:11;;;;;;;;;;;;;;;27.72;18.61;96832.31;6372900;27;19930;-65
2022/04/28 07:09:14;;;;;;;;;;;;;;;27.63;18.89;96790.31;6372896;27;20404;-64
2022/04/28 07:12:18;;;;;;;;;;;;;;;27.84;18.60;96807.38;6374309;27;19923;-65
2022/04/28 07:15:22;;;;;;;;;;;;;;;28.02;18.18;96799.44;6372664;27;19980;-64
2022/04/28 07:18:26;;;;;;;;;;;;;;;28.72;17.41;96805.03;6373802;27;19923;-64
2022/04/28 07:21:27;;;;;;;;;;;;;;;29.47;16.54;96797.09;6372919;27;19930;-65
2022/04/28 07:24:32;;;;;;;;;;;;;;;29.54;16.38;96792.44;6373836;27;19996;-65
2022/04/28 07:27:36;;;;;;;;;;;;;;;28.94;17.13;96802.03;6373717;27;19925;-66
2022/04/28 07:30:42;;;;;;;;;;;;;;;28.76;16.96;96794.59;6373405;27;19919;-64
2022/04/28 07:33:43;;;;;;;;;;;;;;;28.94;17.00;96775.75;6373399;27;19980;-64
2022/04/28 07:36:46;;;;;;;;;;;;;;;29.89;16.28;96805.50;6373372;27;20385;-64
2022/04/28 07:39:50;;;;;;;;;;;;;;;30.35;15.93;96793.38;6373228;27;20004;-64
2022/04/28 07:42:53;;;;;;;;;;;;;;;29.81;16.13;96797.66;6373052;27;19962;-65
2022/04/28 07:45:54;;;;;;;;;;;;;;;29.35;16.49;96793.41;6372200;27;19923;-65
2022/04/28 07:48:57;;;;;;;;;;;;;;;31.02;14.68;96787.06;6372398;27;19923;-65
2022/04/28 07:51:58;;;;;;;;;;;;;;;33.04;13.54;96793.09;6372199;27;19924;-65
2022/04/28 07:55:03;;;;;;;;;;;;;;;33.37;13.02;96791.47;6373052;27;19923;-65
2022/04/28 07:58:07;;;;;;;;;;;;;;;34.11;12.46;96802.25;6371820;27;19923;-65
2022/04/28 08:01:12;;;;;;;;;;;;;;;33.47;12.46;96792.47;6372896;27;19924;-66
2022/04/28 08:04:15;;;;;;;;;;;;;;;32.76;13.31;96791.16;6354657;27;19923;-65
2022/04/28 08:07:19;;;;;;;;;;;;;;;32.88;13.45;96778.31;6371400;27;19966;-65
2022/04/28 08:10:22;;;;;;;;;;;;;;;32.89;13.02;96763.59;6372283;27;19923;-65
2022/04/28 08:13:24;;;;;;;;;;;;;;;32.45;13.62;96768.72;6371984;27;19923;-64
2022/04/28 08:16:25;;;;;;;;;;;;;;;32.33;13.88;96765.19;6371331;27;19919;-64
2022/04/28 08:19:27;;;;;;;;;;;;;;;32.76;13.17;96775.66;6371281;27;19924;-64
2022/04/28 08:22:32;;;;;;;;;;;;;;;32.08;13.46;96777.22;6372428;27;19923;-64
2022/04/28 08:25:37;;;;;;;;;;;;;;;30.14;14.91;96763.91;6372215;27;19923;-64
2022/04/28 08:28:38;;;;;;;;;;;;;;;30.33;14.83;96752.03;6371129;27;19928;-65
2022/04/28 08:31:44;;;;;;;;;;;;;;;31.63;14.14;96758.75;6372151;27;19949;-65
2022/04/28 08:34:45;;;;;;;;;;;;;;;33.25;12.50;96750.66;6371164;27;20315;-64
2022/04/28 08:37:49;;;;;;;;;;;;;;;31.80;14.12;96744.44;6372014;27;19919;-65
2022/04/28 08:41:02;;;;;;;;;;;;;;;31.92;13.97;96753.44;6372052;27;19923;-64
2022/04/28 08:44:04;;;;;;;;;;;;;;;31.27;14.67;96768.69;6370812;27;19925;-65
2022/04/28 08:47:05;;;;;;;;;;;;;;;31.86;14.15;96743.47;6370965;27;19923;-65
2022/04/28 08:50:07;;;;;;;;;;;;;;;33.00;13.39;96770.94;6371736;27;19923;-64
2022/04/28 08:53:11;;;;;;;;;;;;;;;33.27;12.71;96735.69;6371589;27;19923;-65
2022/04/28 08:56:12;;;;;;;;;;;;;;;34.01;12.44;96747.47;6370598;27;20346;-65
2022/04/28 08:59:16;;;;;;;;;;;;;;;34.31;12.25;96747.06;6352104;27;19930;-64
2022/04/28 09:02:27;;;;;;;;;;;;;;;34.08;12.39;96738.03;6370372;27;19935;-65
2022/04/28 09:05:30;;;;;;;;;;;;;;;33.61;12.47;96718.53;6370744;27;20332;-65
2022/04/28 09:08:31;;;;;;;;;;;;;;;33.67;12.34;96755.72;6370967;28;20013;-65
2022/04/28 09:11:40;;;;;;;;;;;;;;;34.45;11.67;96714.75;6344808;28;20011;-66
2022/04/28 09:14:44;;;;;;;;;;;;;;;34.76;11.55;96749.53;6345630;28;19923;-65
2022/04/28 09:17:47;;;;;;;;;;;;;;;33.85;11.99;96700.84;6346126;28;19928;-65
2022/04/28 09:20:49;;;;;;;;;;;;;;;32.87;13.03;96742.06;6345785;28;19928;-65
2022/04/28 09:23:53;;;;;;;;;;;;;;;32.74;13.33;96727.91;6345975;28;19924;-65
2022/04/28 09:26:55;;;;;;;;;;;;;;;32.84;13.26;96715.31;6345528;28;19923;-64
2022/04/28 09:29:56;;;;;;;;;;;;;;;32.65;13.81;96731.03;6345343;28;19930;-65
2022/04/28 09:33:07;;;;;;;;;;;;;;;32.45;13.54;96719.72;6345370;28;20308;-64
2022/04/28 09:36:08;;;;;;;;;;;;;;;31.98;13.70;96714.38;6345537;28;20308;-65
2022/04/28 09:39:14;;;;;;;;;;;;;;;32.00;13.85;96701.38;6345321;28;19929;-65
2022/04/28 09:42:29;;;;;;;;;;;;;;;31.75;14.79;96726.09;6350444;28;20404;-64
2022/04/28 09:45:33;;;;;;;;;;;;;;;31.71;14.71;96731.19;6350670;28;20292;-64
2022/04/28 09:48:42;;;;;;;;;;;;;;;32.04;14.06;96702.53;6349896;28;19928;-65
2022/04/28 09:51:46;;;;;;;;;;;;;;;31.84;13.66;96702.06;6348975;28;19935;-65
2022/04/28 09:54:53;;;;;;;;;;;;;;;31.61;14.28;96692.88;6350720;28;19923;-65
2022/04/28 09:57:59;;;;;;;;;;;;;;;31.63;14.36;96679.03;6350426;28;19924;-65
2022/04/28 10:01:02;;;;;;;;;;;;;;;31.28;14.35;96690.69;6348921;28;19930;-64
2022/04/28 10:04:07;;;;;;;;;;;;;;;31.22;14.31;96678.88;6349807;28;19930;-65
2022/04/28 10:07:08;;;;;;;;;;;;;;;30.97;14.77;96684.53;6349867;27;19984;-64
2022/04/28 10:10:09;;;;;;;;;;;;;;;30.80;14.69;96670.81;6352753;27;19965;-66
2022/04/28 10:13:12;;;;;;;;;;;;;;;30.79;14.58;96679.13;6375067;27;20304;-65
2022/04/28 10:16:16;;;;;;;;;;;;;;;30.70;14.80;96672.38;6375698;27;20426;-65
2022/04/28 10:19:21;;;;;;;;;;;;;;;30.67;14.76;96660.09;6374707;27;20335;-65
2022/04/28 10:22:31;;;;;;;;;;;;;;;30.38;15.10;96684.31;6375300;27;19923;-65
2022/04/28 10:32:51;;;;;;;;;;;;;;;30.09;15.24;96693.22;6326705;27;20396;-65
2022/04/28 10:36:01;;;;;;;;;;;;;;;29.95;15.39;96655.41;6374723;27;19924;-64
2022/04/28 10:39:08;;;;;;;;;;;;;;;29.38;16.13;96684.56;6374891;27;19923;-64
2022/04/28 10:42:42;;;;;;;;;;;;;;;29.19;16.33;96656.63;6374787;27;19923;-64
2022/04/28 10:45:44;;;;;;;;;;;;;;;29.47;16.01;96666.97;6285075;27;20300;-65
2022/04/28 10:48:51;;;;;;;;;;;;;;;29.67;16.20;96665.97;6373517;27;20292;-66
2022/04/28 10:51:58;;;;;;;;;;;;;;;29.23;16.52;96673.25;6374015;27;19923;-65
2022/04/28 10:55:01;;;;;;;;;;;;;;;28.80;16.66;96665.88;6374327;27;20319;-66
2022/04/28 10:58:37;;;;;;;;;;;;;;;28.97;16.79;96656.16;6374715;27;19923;-65
2022/04/28 11:01:42;;;;;;;;;;;;;;;28.99;16.85;96678.44;6303103;27;20011;-67
2022/04/28 11:04:52;;;;;;;;;;;;;;;28.77;17.01;96650.06;6374446;27;19923;-66
2022/04/28 11:08:01;;;;;;;;;;;;;;;28.70;16.72;96654.69;6374307;27;20393;-66
2022/04/28 11:11:05;;;;;;;;;;;;;;;28.29;17.37;96666.78;6373256;27;20395;-66
2022/04/28 11:14:08;;;;;;;;;;;;;;;27.71;17.71;96651.38;6373130;27;19988;-66
2022/04/28 11:17:11;;;;;;;;;;;;;;;27.96;17.73;96646.13;6373086;27;19927;-65
2022/04/28 11:20:16;;;;;;;;;;;;;;;29.14;16.13;96650.22;6373878;27;19923;-65
2022/04/28 11:23:19;;;;;;;;;;;;;;;28.79;16.48;96643.38;6373650;27;19930;-66
2022/04/28 11:26:24;;;;;;;;;;;;;;;28.58;16.58;96663.50;6373461;27;19980;-64
2022/04/28 11:29:31;;;;;;;;;;;;;;;28.46;17.03;96656.31;6373442;27;20388;-65
2022/04/28 11:32:32;;;;;;;;;;;;;;;28.02;17.36;96691.25;6354293;27;19969;-65
2022/04/28 11:35:35;;;;;;;;;;;;;;;27.81;17.73;96680.72;6372503;27;19923;-65
2022/04/28 11:38:38;;;;;;;;;;;;;;;27.37;18.30;96661.44;6372687;27;19923;-65
2022/04/28 11:41:42;;;;;;;;;;;;;;;26.61;18.58;96630.31;6373477;27;20404;-65
2022/04/28 11:44:44;;;;;;;;;;;;;;;26.06;19.69;96650.31;6373258;27;19930;-65
2022/04/28 11:47:46;;;;;;;;;;;;;;;25.82;19.80;96657.84;6372280;27;19931;-65
2022/04/28 11:50:47;;;;;;;;;;;;;;;25.74;19.73;96642.69;6372045;27;19935;-65
2022/04/28 11:53:56;;;;;;;;;;;;;;;25.85;19.17;96641.31;6373108;27;20356;-65
2022/04/28 11:57:07;;;;;;;;;;;;;;;26.11;18.60;96645.13;6371993;27;20308;-66
2022/04/28 12:00:12;;;;;;;;;;;;;;;26.66;17.81;96637.78;6371988;27;19924;-65
2022/04/28 12:03:23;;;;;;;;;;;;;;;27.02;17.04;96636.53;6371891;27;19923;-65
2022/04/28 12:06:25;;;;;;;;;;;;;;;27.26;16.96;96641.34;6371895;27;19927;-64
2022/04/28 12:16:16;;;;;;;;;;;;;;;26.20;18.29;96650.13;6372353;27;19923;-64
2022/04/28 12:19:24;;;;;;;;;;;;;;;26.72;17.29;96631.56;6372531;27;19989;-65
2022/04/28 12:22:35;;;;;;;;;;;;;;;26.71;17.13;96659.59;6371124;27;20388;-64
2022/04/28 12:25:41;;;;;;;;;;;;;;;26.08;17.89;96637.44;6371806;27;20299;-65
2022/04/28 12:28:43;;;;;;;;;;;;;;;25.61;18.27;96650.69;6370767;27;19923;-65
2022/04/28 12:31:53;;;;;;;;;;;;;;;25.40;18.47;96675.03;6371254;27;19946;-65
2022/04/28 12:34:58;;;;;;;;;;;;;;;25.05;21.86;96665.03;6371148;27;20265;-65
2022/04/28 12:38:06;;;;;;;;;;;;;;;24.77;24.00;96681.16;6354021;27;19927;-65
2022/04/28 12:41:14;;;;;;;;;;;;;;;24.62;24.78;96678.53;6371593;27;19937;-64
2022/04/28 12:44:18;;;;;;;;;;;;;;;24.72;26.63;96655.88;6371481;27;19969;-65
2022/04/28 12:47:33;;;;;;;;;;;;;;;24.42;27.67;96664.84;6371342;27;19923;-65
2022/04/28 12:50:36;;;;;;;;;;;;;;;23.98;28.22;96665.84;6370762;27;19968;-65
2022/04/28 12:53:40;;;;;;;;;;;;;;;23.61;28.66;96669.47;6352569;27;20396;-64
2022/04/28 12:56:46;;;;;;;;;;;;;;;23.34;28.68;96664.75;6371481;27;19924;-65
2022/04/28 12:59:47;;;;;;;;;;;;;;;23.45;29.49;96675.03;6370371;27;19930;-65
2022/04/28 13:02:51;;;;;;;;;;;;;;;23.27;29.44;96672.72;6371291;27;19923;-66
2022/04/28 13:05:52;;;;;;;;;;;;;;;23.21;29.91;96668.91;6370524;27;20426;-65
2022/04/28 13:08:56;;;;;;;;;;;;;;;23.05;29.47;96667.22;6370222;28;19930;-65
2022/04/28 13:11:58;;;;;;;;;;;;;;;23.33;29.11;96677.34;6369905;28;20384;-66
2022/04/28 13:15:05;;;;;;;;;;;;;;;23.56;29.10;96677.25;6339231;27;19923;-65
2022/04/28 13:18:09;;;;;;;;;;;;;;;23.77;28.98;96678.38;6376489;27;19928;-65
2022/04/28 13:21:12;;;;;;;;;;;;;;;23.83;28.76;96670.38;6375387;27;19923;-65
2022/04/28 13:24:13;;;;;;;;;;;;;;;23.81;28.68;96661.69;6376292;27;19929;-65
2022/04/28 13:27:14;;;;;;;;;;;;;;;23.84;28.93;96663.19;6375610;27;19924;-65
2022/04/28 13:30:18;;;;;;;;;;;;;;;23.80;29.08;96667.25;6376149;27;19923;-65
2022/04/28 13:33:20;;;;;;;;;;;;;;;23.74;29.04;96664.28;6375681;27;20428;-65
2022/04/28 13:36:24;;;;;;;;;;;;;;;23.70;29.37;96663.00;6375979;27;19923;-65
2022/04/28 13:39:27;;;;;;;;;;;;;;;23.50;29.86;96665.41;6375995;27;19923;-65
2022/04/28 13:42:31;;;;;;;;;;;;;;;23.25;30.14;96661.31;6375692;27;19923;-64
2022/04/28 13:45:35;;;;;;;;;;;;;;;22.98;30.71;96646.66;6357430;27;19927;-64
2022/04/28 13:48:38;;;;;;;;;;;;;;;22.79;30.64;96645.31;6375891;27;19923;-65
2022/04/28 13:51:42;;;;;;;;;;;;;;;22.75;30.77;96647.50;6375244;27;19920;-65
2022/04/28 13:54:43;;;;;;;;;;;;;;;22.70;30.77;96647.19;6374637;27;19924;-66
2022/04/28 13:57:46;;;;;;;;;;;;;;;22.68;30.57;96641.19;6374683;27;19923;-65
2022/04/28 14:00:50;;;;;;;;;;;;;;;22.67;30.45;96639.50;6374626;27;19920;-66
2022/04/28 14:03:56;;;;;;;;;;;;;;;22.62;30.39;96641.94;6355866;27;19927;-66
2022/04/28 14:07:00;;;;;;;;;;;;;;;22.57;30.82;96645.13;6374123;27;19923;-66
2022/04/28 14:10:05;;;;;;;;;;;;;;;22.56;30.62;96645.31;6375317;27;19923;-65
2022/04/28 14:13:09;;;;;;;;;;;;;;;22.57;30.62;96638.94;6375246;27;19923;-65
2022/04/28 14:16:10;;;;;;;;;;;;;;;22.60;31.90;96633.22;6373166;27;20022;-66
2022/04/28 14:19:11;;;;;;;;;;;;;;;22.61;30.84;96640.25;6374603;27;19923;-67
2022/04/28 14:22:17;;;;;;;;;;;;;;;22.54;31.08;96650.03;6375230;27;20386;-65
2022/04/28 14:25:18;;;;;;;;;;;;;;;22.47;31.02;96643.72;6373373;27;19930;-66
2022/04/28 14:28:25;;;;;;;;;;;;;;;22.32;31.64;96652.53;6374610;27;19923;-65
2022/04/28 14:31:28;;;;;;;;;;;;;;;22.16;31.71;96649.94;6355607;27;19931;-65
2022/04/28 14:34:30;;;;;;;;;;;;;;;22.04;32.19;96654.03;6374120;27;19930;-66
2022/04/28 14:37:37;;;;;;;;;;;;;;;21.95;32.27;96648.72;6374474;27;19930;-65
2022/04/28 14:40:41;;;;;;;;;;;;;;;21.91;32.19;96650.09;6373749;27;19923;-66
2022/04/28 14:43:45;;;;;;;;;;;;;;;21.85;32.64;96640.06;6373696;27;19931;-67
2022/04/28 14:46:46;;;;;;;;;;;;;;;21.76;32.94;96649.16;6374184;27;19924;-67
2022/04/28 14:53:14;;;;;;;;;;;;;;;21.57;33.19;96646.88;6373324;27;20432;-65
2022/04/28 14:56:15;;;;;;;;;;;;;;;21.43;33.46;96651.97;6372645;27;19924;-65
2022/04/28 14:59:19;;;;;;;;;;;;;;;21.33;33.18;96651.31;6374140;27;19923;-66
2022/04/28 15:02:25;;;;;;;;;;;;;;;21.25;33.33;96654.00;6373721;27;19924;-65
2022/04/28 15:05:27;;;;;;;;;;;;;;;21.19;33.58;96660.88;6373382;27;20392;-65
2022/04/28 15:08:31;;;;;;;;;;;;;;;21.14;33.91;96662.38;6374063;27;19923;-65
2022/04/28 15:11:32;;;;;;;;;;;;;;;20.97;34.21;96651.72;6372994;27;20297;-65
2022/04/28 15:14:34;;;;;;;;;;;;;;;20.74;34.80;96656.09;6372921;27;19923;-65
2022/04/28 15:17:38;;;;;;;;;;;;;;;20.48;35.16;96662.41;6373282;27;20289;-65
2022/04/28 15:20:42;;;;;;;;;;;;;;;20.30;35.08;96664.41;6372873;27;19927;-65
2022/04/28 15:23:44;;;;;;;;;;;;;;;20.22;35.16;96672.41;6372798;27;19923;-66
2022/04/28 15:26:46;;;;;;;;;;;;;;;20.21;35.40;96676.91;6373254;27;20308;-65
2022/04/28 15:29:47;;;;;;;;;;;;;;;20.18;35.55;96675.44;6372089;27;19923;-65
2022/04/28 15:32:51;;;;;;;;;;;;;;;20.12;35.98;96673.38;6373762;27;19946;-67
2022/04/28 15:35:53;;;;;;;;;;;;;;;20.04;35.64;96681.41;6372440;27;19923;-66
2022/04/28 15:38:54;;;;;;;;;;;;;;;19.94;35.77;96676.19;6372705;27;20420;-66
2022/04/28 15:41:57;;;;;;;;;;;;;;;19.77;35.86;96678.97;6373274;27;19923;-67
2022/04/28 15:45:04;;;;;;;;;;;;;;;19.52;36.84;96681.50;6373561;27;19923;-67
2022/04/28 15:48:05;;;;;;;;;;;;;;;19.28;37.06;96685.72;6371999;27;19923;-65
2022/04/28 15:51:06;;;;;;;;;;;;;;;19.10;37.16;96682.28;6373058;27;20281;-67
2022/04/28 15:54:08;;;;;;;;;;;;;;;19.05;37.84;96684.56;6354097;27;19999;-65
2022/04/28 15:57:09;;;;;;;;;;;;;;;19.14;38.25;96694.31;6371928;27;20276;-66
2022/04/28 16:00:16;;;;;;;;;;;;;;;19.24;38.55;96708.38;6372845;27;20021;-66
2022/04/28 16:03:17;;;;;;;;;;;;;;;19.35;39.00;96711.78;6371893;27;19923;-65
2022/04/28 16:06:19;;;;;;;;;;;;;;;19.38;39.32;96722.13;6371340;27;20359;-66
2022/04/28 16:09:20;;;;;;;;;;;;;;;19.34;38.49;96721.63;6371605;27;19930;-65
2022/04/28 16:12:21;;;;;;;;;;;;;;;19.36;38.35;96729.44;6371684;27;20402;-66
2022/04/28 16:15:24;;;;;;;;;;;;;;;19.47;39.23;96747.84;6372549;27;19927;-65
2022/04/28 16:18:28;;;;;;;;;;;;;;;19.42;39.57;96740.34;6372420;27;20000;-65
2022/04/28 16:21:32;;;;;;;;;;;;;;;19.26;40.75;96741.06;6372148;27;19930;-65
2022/04/28 16:24:38;;;;;;;;;;;;;;;18.89;40.95;96749.31;6372141;27;20361;-65
2022/04/28 16:27:40;;;;;;;;;;;;;;;18.77;42.17;96777.19;6371151;27;19923;-65
2022/04/28 16:30:44;;;;;;;;;;;;;;;18.72;42.51;96790.09;6371436;27;19934;-65
2022/04/28 16:33:45;;;;;;;;;;;;;;;18.73;42.26;96792.59;6371760;27;19987;-65